createdAt,value
2022-11-05T00:05:12.362Z,2.60
2022-11-05T00:10:26.112Z,3.28
2022-11-05T00:15:46.243Z,3.10
2022-11-05T00:20:47.515Z,2.83
2022-11-05T00:26:00.375Z,2.45
2022-11-05T00:31:06.934Z,2.33
2022-11-05T00:36:10.685Z,2.88
2022-11-05T00:41:11.990Z,2.47
2022-11-05T00:46:13.372Z,2.42
2022-11-05T00:51:14.718Z,2.47
2022-11-05T00:56:16.004Z,2.20
2022-11-05T01:01:17.469Z,2.75
2022-11-05T01:06:19.002Z,2.90
2022-11-05T01:11:36.963Z,2.38
2022-11-05T01:16:39.808Z,2.08
2022-11-05T01:21:41.153Z,2.40
2022-11-05T01:26:42.544Z,2.88
2022-11-05T01:31:43.868Z,3.13
2022-11-05T01:36:45.215Z,2.67
2022-11-05T01:41:46.604Z,2.22
2022-11-05T01:46:47.915Z,2.40
2022-11-05T01:51:51.231Z,2.30
2022-11-05T01:56:59.683Z,2.80
2022-11-05T02:02:03.399Z,1.98
2022-11-05T02:07:07.552Z,1.80
2022-11-05T02:12:10.667Z,1.80
2022-11-05T02:17:21.534Z,2.15
2022-11-05T02:23:05.079Z,2.33
2022-11-05T02:28:42.677Z,2.25
2022-11-05T02:33:56.705Z,2.05
2022-11-05T02:39:27.014Z,2.53
2022-11-05T02:44:47.108Z,1.90
2022-11-05T02:49:57.324Z,1.70
2022-11-05T02:55:13.963Z,1.70
2022-11-05T03:00:43.402Z,1.92
2022-11-05T03:05:58.599Z,2.85
2022-11-05T03:11:16.503Z,2.80
2022-11-05T03:16:43.031Z,2.65
2022-11-05T03:21:58.843Z,2.60
2022-11-05T03:27:08.743Z,3.42
2022-11-05T03:32:12.277Z,3.75
2022-11-05T03:37:16.769Z,4.55
2022-11-05T03:47:28.135Z,4.97
2022-11-05T03:52:36.310Z,5.50
2022-11-05T03:57:41.247Z,6.03
2022-11-05T04:02:42.693Z,7.25
2022-11-05T04:08:03.393Z,9.10
2022-11-05T04:13:25.758Z,9.23
2022-11-05T04:18:27.153Z,10.50
2022-11-05T04:23:47.073Z,11.48
2022-11-05T04:29:11.282Z,10.88
2022-11-05T04:34:12.646Z,12.77
2022-11-05T04:39:13.932Z,12.68
2022-11-05T04:44:15.961Z,12.93
2022-11-05T04:49:17.254Z,11.95
2022-11-05T04:54:18.622Z,12.70
2022-11-05T04:59:19.915Z,12.57
2022-11-05T05:04:21.235Z,12.48
2022-11-05T05:09:22.543Z,12.30
2022-11-05T05:14:23.845Z,12.65
2022-11-05T05:19:25.747Z,13.68
2022-11-05T05:24:27.066Z,13.75
2022-11-05T05:29:28.362Z,13.85
2022-11-05T05:34:29.674Z,12.93
2022-11-05T05:39:31.048Z,13.68
2022-11-05T05:44:32.339Z,14.40
2022-11-05T05:49:33.701Z,13.80
2022-11-05T05:54:39.744Z,16.30
2022-11-05T05:59:43.691Z,14.88
2022-11-05T06:04:45.333Z,15.45
2022-11-05T06:09:46.727Z,14.30
2022-11-05T06:14:48.068Z,14.90
2022-11-05T06:19:49.379Z,15.02
2022-11-05T06:24:50.652Z,14.30
2022-11-05T06:29:51.975Z,13.73
2022-11-05T06:34:53.367Z,12.05
2022-11-05T06:39:57.002Z,11.05
2022-11-05T06:44:58.375Z,10.43
2022-11-05T06:49:59.731Z,11.68
2022-11-05T06:55:02.361Z,10.07
2022-11-05T07:00:07.854Z,9.93
2022-11-05T07:05:11.139Z,10.48
2022-11-05T07:10:15.233Z,9.25
2022-11-05T07:15:16.650Z,9.23
2022-11-05T07:20:18.047Z,9.98
2022-11-05T07:25:19.460Z,10.00
2022-11-05T07:30:20.755Z,9.07
2022-11-05T07:35:23.002Z,8.68
2022-11-05T07:40:26.468Z,8.45
2022-11-05T07:45:30.212Z,9.02
2022-11-05T07:50:34.273Z,9.83
2022-11-05T07:55:35.761Z,9.70
2022-11-05T08:00:37.637Z,8.27
2022-11-05T08:05:41.114Z,8.32
2022-11-05T08:10:43.044Z,7.65
2022-11-05T08:15:44.927Z,8.00
2022-11-05T08:20:47.573Z,6.85
2022-11-05T08:25:48.890Z,9.15
2022-11-05T08:30:51.977Z,9.82
2022-11-05T08:35:53.551Z,11.05
2022-11-05T08:40:57.479Z,8.57
2022-11-05T08:46:00.899Z,12.02
2022-11-05T08:51:02.187Z,7.70
2022-11-05T08:56:03.654Z,8.07
2022-11-05T09:01:05.760Z,7.85
2022-11-05T09:06:07.563Z,7.22
2022-11-05T09:11:08.919Z,9.00
2022-11-05T09:16:22.407Z,8.57
2022-11-05T09:21:23.758Z,9.30
2022-11-05T09:26:25.058Z,9.27
2022-11-05T09:31:26.387Z,9.55
2022-11-05T09:36:27.821Z,8.68
2022-11-05T09:41:36.998Z,8.40
2022-11-05T09:46:55.880Z,9.77
2022-11-05T09:51:58.789Z,8.18
2022-11-05T09:57:02.197Z,10.50
2022-11-05T10:02:17.045Z,10.33
2022-11-05T10:07:22.840Z,8.98
2022-11-05T10:12:36.116Z,8.75
2022-11-05T10:17:40.722Z,7.53
2022-11-05T10:22:46.604Z,6.43
2022-11-05T10:27:54.436Z,5.35
2022-11-05T10:32:59.777Z,6.07
2022-11-05T10:38:01.721Z,5.78
2022-11-05T10:43:14.914Z,6.30
2022-11-05T10:48:46.280Z,7.60
2022-11-05T10:54:00.340Z,6.30
2022-11-05T10:59:11.928Z,5.43
2022-11-05T11:04:20.332Z,5.78
2022-11-05T11:09:35.540Z,6.22
2022-11-05T11:14:36.848Z,4.63
2022-11-05T11:19:38.567Z,3.83
2022-11-05T11:24:45.644Z,4.20
2022-11-05T11:29:56.110Z,3.65
2022-11-05T11:34:58.331Z,3.05
2022-11-05T11:40:13.406Z,3.10
2022-11-05T11:45:27.342Z,2.42
2022-11-05T11:50:31.371Z,2.15
2022-11-05T11:55:32.689Z,1.85
2022-11-05T12:00:44.514Z,2.30
2022-11-05T12:05:54.719Z,2.15
2022-11-05T12:11:08.330Z,1.08
2022-11-05T12:16:22.546Z,1.30
2022-11-05T12:21:52.545Z,0.80
2022-11-05T12:27:21.415Z,0.70
2022-11-05T12:32:55.585Z,0.80
2022-11-05T12:38:21.755Z,1.30
2022-11-05T12:43:32.038Z,1.27
2022-11-05T12:48:57.129Z,0.98
2022-11-05T12:54:32.569Z,1.50
2022-11-05T12:59:40.087Z,1.85
2022-11-05T13:04:46.034Z,2.05
2022-11-05T13:09:55.326Z,1.58
2022-11-05T13:15:00.883Z,2.30
2022-11-05T13:20:17.170Z,3.03
2022-11-05T13:25:25.495Z,3.10
2022-11-05T13:30:34.553Z,2.78
2022-11-05T13:36:25.236Z,2.88
2022-11-05T13:41:45.438Z,3.30
2022-11-05T13:47:11.908Z,3.58
2022-11-05T13:52:13.167Z,2.78
2022-11-05T13:57:31.911Z,4.55
2022-11-05T14:02:42.043Z,2.97
2022-11-05T14:07:47.550Z,3.00
2022-11-05T14:12:55.433Z,3.55
2022-11-05T14:18:01.327Z,2.50
2022-11-05T14:23:21.113Z,2.40
2022-11-05T14:28:34.529Z,2.60
2022-11-05T14:33:39.664Z,3.00
2022-11-05T14:38:49.881Z,2.53
2022-11-05T14:43:58.623Z,3.38
2022-11-05T14:49:09.083Z,2.25
2022-11-05T14:54:27.769Z,1.98
2022-11-05T14:59:29.048Z,2.63
2022-11-05T15:04:49.217Z,2.22
2022-11-05T15:10:03.204Z,1.80
2022-11-05T15:15:22.276Z,2.10
2022-11-05T15:20:46.075Z,1.73
2022-11-05T15:26:09.060Z,1.65
2022-11-05T15:31:13.566Z,1.63
2022-11-05T15:36:24.941Z,1.65
2022-11-05T15:41:31.899Z,1.83
2022-11-05T15:46:33.364Z,1.27
2022-11-05T15:51:36.006Z,1.55
2022-11-05T15:56:48.211Z,2.33
2022-11-05T16:01:56.780Z,2.08
2022-11-05T16:07:01.551Z,2.28
2022-11-05T16:12:27.165Z,2.17
2022-11-05T16:17:39.523Z,1.98
2022-11-05T16:22:49.050Z,2.80
2022-11-05T16:27:50.484Z,2.40
2022-11-05T16:32:52.953Z,2.85
2022-11-05T16:37:54.319Z,2.58
2022-11-05T16:43:08.500Z,2.25
2022-11-05T16:48:12.726Z,3.60
2022-11-05T16:58:25.085Z,3.33
2022-11-05T17:03:26.420Z,2.47
2022-11-05T17:08:27.919Z,3.65
2022-11-05T17:13:29.224Z,3.28
2022-11-05T17:18:30.703Z,4.00
2022-11-05T17:23:34.307Z,4.07
2022-11-05T17:28:35.824Z,4.85
2022-11-05T17:33:37.190Z,5.05
2022-11-05T17:38:38.655Z,6.07
2022-11-05T17:43:40.020Z,6.15
2022-11-05T17:48:41.598Z,7.22
2022-11-05T17:53:44.637Z,6.63
2022-11-05T17:58:45.944Z,7.40
2022-11-05T18:03:47.243Z,7.68
2022-11-05T18:08:48.848Z,8.15
2022-11-05T18:13:50.311Z,8.00
2022-11-05T18:18:51.734Z,8.48
2022-11-05T18:23:53.107Z,8.23
2022-11-05T18:28:54.460Z,8.05
2022-11-05T18:33:58.649Z,7.15
2022-11-05T18:39:02.762Z,9.07
2022-11-05T18:49:07.052Z,8.95
2022-11-05T18:54:08.814Z,8.18
2022-11-05T18:59:35.074Z,7.95
2022-11-05T19:04:32.072Z,8.30
2022-11-05T19:09:34.439Z,9.15
2022-11-05T19:14:36.029Z,9.55
2022-11-05T19:19:37.567Z,9.45
2022-11-05T19:24:38.867Z,10.45
2022-11-05T19:29:40.172Z,10.70
2022-11-05T19:34:41.567Z,10.40
2022-11-05T19:39:43.168Z,10.45
2022-11-05T19:44:44.495Z,9.60
2022-11-05T19:49:45.816Z,10.73
2022-11-05T19:54:47.174Z,10.23
2022-11-05T19:59:50.392Z,10.05
2022-11-05T20:04:51.751Z,9.60
2022-11-05T20:09:53.088Z,8.95
2022-11-05T20:14:54.464Z,7.75
2022-11-05T20:19:56.183Z,8.10
2022-11-05T20:24:57.504Z,8.55
2022-11-05T20:29:58.799Z,8.25
2022-11-05T20:35:00.082Z,7.68
2022-11-05T20:40:01.445Z,8.88
2022-11-05T20:45:02.821Z,9.65
2022-11-05T20:50:05.183Z,8.25
2022-11-05T20:55:09.089Z,8.82
2022-11-05T21:00:11.626Z,9.07
2022-11-05T21:05:12.990Z,8.07
2022-11-05T21:10:14.324Z,8.52
2022-11-05T21:15:20.109Z,7.95
2022-11-05T21:20:21.467Z,7.50
2022-11-05T21:25:22.747Z,8.05
2022-11-05T21:30:24.110Z,7.50
2022-11-05T21:35:25.515Z,7.18
2022-11-05T21:40:26.839Z,7.00
2022-11-05T21:45:28.132Z,6.80
2022-11-05T21:50:47.754Z,7.15
2022-11-05T21:56:07.695Z,7.63
2022-11-05T22:01:09.104Z,6.97
2022-11-05T22:06:10.781Z,7.25
2022-11-05T22:11:12.088Z,7.05
2022-11-05T22:16:13.392Z,7.43
2022-11-05T22:21:18.733Z,7.20
2022-11-05T22:26:20.106Z,6.97
2022-11-05T22:31:22.013Z,6.90
2022-11-05T22:36:23.412Z,7.22
2022-11-05T22:41:24.809Z,8.75
2022-11-05T22:46:27.074Z,8.00
2022-11-05T22:51:33.512Z,7.68
2022-11-05T22:56:39.386Z,7.35
2022-11-05T23:01:41.633Z,7.07
2022-11-05T23:07:01.464Z,7.65
2022-11-05T23:12:06.188Z,7.53
2022-11-05T23:22:49.654Z,7.18
2022-11-05T23:27:53.216Z,8.25
2022-11-05T23:32:55.731Z,8.23
2022-11-05T23:38:15.771Z,7.32
2022-11-05T23:43:36.016Z,7.20
2022-11-05T23:48:37.776Z,6.72
2022-11-05T23:53:40.775Z,7.68
2022-11-05T23:58:42.532Z,7.82
